sensor_id;sensor_type;location;lat;lon;timestamp;P1;durP1;ratioP1;P2;durP2;ratioP2
43628;SDS011;56545;48.224;11.678;2023-03-16T00:00:14;9.00;;;4.88;;
43628;SDS011;56545;48.224;11.678;2023-03-16T00:02:41;7.80;;;4.97;;
43628;SDS011;56545;48.224;11.678;2023-03-16T00:05:11;8.52;;;5.20;;
43628;SDS011;56545;48.224;11.678;2023-03-16T00:07:38;9.13;;;4.68;;
43628;SDS011;56545;48.224;11.678;2023-03-16T00:10:06;10.15;;;5.50;;
43628;SDS011;56545;48.224;11.678;2023-03-16T00:12:33;7.90;;;4.90;;
43628;SDS011;56545;48.224;11.678;2023-03-16T00:14:59;8.93;;;5.25;;
43628;SDS011;56545;48.224;11.678;2023-03-16T00:17:26;8.98;;;5.22;;
43628;SDS011;56545;48.224;11.678;2023-03-16T00:19:53;9.85;;;5.90;;
43628;SDS011;56545;48.224;11.678;2023-03-16T00:22:20;8.10;;;5.70;;
43628;SDS011;56545;48.224;11.678;2023-03-16T00:24:51;8.60;;;5.50;;
43628;SDS011;56545;48.224;11.678;2023-03-16T00:27:18;8.57;;;5.60;;
43628;SDS011;56545;48.224;11.678;2023-03-16T00:29:47;9.77;;;5.32;;
43628;SDS011;56545;48.224;11.678;2023-03-16T00:32:14;8.55;;;5.70;;
43628;SDS011;56545;48.224;11.678;2023-03-16T00:34:42;12.68;;;5.97;;
43628;SDS011;56545;48.224;11.678;2023-03-16T00:37:09;8.25;;;5.50;;
43628;SDS011;56545;48.224;11.678;2023-03-16T00:39:38;10.75;;;6.50;;
43628;SDS011;56545;48.224;11.678;2023-03-16T00:42:04;11.18;;;5.70;;
43628;SDS011;56545;48.224;11.678;2023-03-16T00:44:30;9.93;;;6.03;;
43628;SDS011;56545;48.224;11.678;2023-03-16T00:46:56;10.90;;;5.68;;
43628;SDS011;56545;48.224;11.678;2023-03-16T00:49:22;8.88;;;5.70;;
43628;SDS011;56545;48.224;11.678;2023-03-16T00:51:48;8.60;;;5.40;;
43628;SDS011;56545;48.224;11.678;2023-03-16T00:54:14;9.90;;;5.35;;
43628;SDS011;56545;48.224;11.678;2023-03-16T00:56:41;9.00;;;5.72;;
43628;SDS011;56545;48.224;11.678;2023-03-16T00:59:07;8.80;;;5.75;;
43628;SDS011;56545;48.224;11.678;2023-03-16T01:01:33;8.93;;;5.80;;
43628;SDS011;56545;48.224;11.678;2023-03-16T01:03:59;9.73;;;5.88;;
43628;SDS011;56545;48.224;11.678;2023-03-16T01:06:25;9.48;;;6.10;;
43628;SDS011;56545;48.224;11.678;2023-03-16T01:08:51;9.35;;;6.05;;
43628;SDS011;56545;48.224;11.678;2023-03-16T01:11:19;10.02;;;6.25;;
43628;SDS011;56545;48.224;11.678;2023-03-16T01:13:47;12.00;;;6.40;;
43628;SDS011;56545;48.224;11.678;2023-03-16T01:16:15;14.02;;;8.48;;
43628;SDS011;56545;48.224;11.678;2023-03-16T01:18:47;14.00;;;9.15;;
43628;SDS011;56545;48.224;11.678;2023-03-16T01:21:13;14.85;;;10.68;;
43628;SDS011;56545;48.224;11.678;2023-03-16T01:23:39;12.25;;;8.70;;
43628;SDS011;56545;48.224;11.678;2023-03-16T01:26:07;13.02;;;8.95;;
43628;SDS011;56545;48.224;11.678;2023-03-16T01:28:34;12.25;;;8.43;;
43628;SDS011;56545;48.224;11.678;2023-03-16T01:31:02;11.90;;;8.10;;
43628;SDS011;56545;48.224;11.678;2023-03-16T01:33:33;11.43;;;7.33;;
43628;SDS011;56545;48.224;11.678;2023-03-16T01:36:00;10.70;;;7.53;;
43628;SDS011;56545;48.224;11.678;2023-03-16T01:38:28;10.95;;;7.78;;
43628;SDS011;56545;48.224;11.678;2023-03-16T01:40:54;12.23;;;8.15;;
43628;SDS011;56545;48.224;11.678;2023-03-16T01:43:21;11.27;;;7.55;;
43628;SDS011;56545;48.224;11.678;2023-03-16T01:51:34;11.15;;;8.18;;
43628;SDS011;56545;48.224;11.678;2023-03-16T01:57:08;12.98;;;7.70;;
43628;SDS011;56545;48.224;11.678;2023-03-16T01:59:41;11.35;;;7.28;;
43628;SDS011;56545;48.224;11.678;2023-03-16T02:02:18;10.13;;;7.32;;
43628;SDS011;56545;48.224;11.678;2023-03-16T02:04:57;11.80;;;8.20;;
43628;SDS011;56545;48.224;11.678;2023-03-16T02:07:26;13.10;;;8.30;;
43628;SDS011;56545;48.224;11.678;2023-03-16T02:09:56;16.75;;;8.52;;
43628;SDS011;56545;48.224;11.678;2023-03-16T02:12:23;12.80;;;7.93;;
43628;SDS011;56545;48.224;11.678;2023-03-16T02:14:50;11.20;;;7.40;;
43628;SDS011;56545;48.224;11.678;2023-03-16T02:17:17;10.75;;;7.78;;
43628;SDS011;56545;48.224;11.678;2023-03-16T02:20:00;11.93;;;7.60;;
43628;SDS011;56545;48.224;11.678;2023-03-16T02:22:32;11.90;;;8.18;;
43628;SDS011;56545;48.224;11.678;2023-03-16T02:25:00;11.73;;;8.60;;
43628;SDS011;56545;48.224;11.678;2023-03-16T02:27:30;11.40;;;7.82;;
43628;SDS011;56545;48.224;11.678;2023-03-16T02:30:06;13.65;;;8.85;;
43628;SDS011;56545;48.224;11.678;2023-03-16T02:32:40;11.60;;;8.43;;
43628;SDS011;56545;48.224;11.678;2023-03-16T02:35:07;11.88;;;8.68;;
43628;SDS011;56545;48.224;11.678;2023-03-16T02:37:34;12.32;;;8.75;;
43628;SDS011;56545;48.224;11.678;2023-03-16T02:40:00;11.93;;;8.45;;
43628;SDS011;56545;48.224;11.678;2023-03-16T02:42:39;12.13;;;8.55;;
43628;SDS011;56545;48.224;11.678;2023-03-16T02:45:05;12.35;;;8.10;;
43628;SDS011;56545;48.224;11.678;2023-03-16T02:47:35;13.73;;;8.35;;
43628;SDS011;56545;48.224;11.678;2023-03-16T02:50:04;12.70;;;8.87;;
43628;SDS011;56545;48.224;11.678;2023-03-16T02:52:34;11.77;;;8.23;;
43628;SDS011;56545;48.224;11.678;2023-03-16T02:55:01;11.43;;;7.93;;
43628;SDS011;56545;48.224;11.678;2023-03-16T02:57:28;11.10;;;7.95;;
43628;SDS011;56545;48.224;11.678;2023-03-16T02:59:54;12.32;;;9.00;;
43628;SDS011;56545;48.224;11.678;2023-03-16T03:02:20;12.45;;;9.10;;
43628;SDS011;56545;48.224;11.678;2023-03-16T03:04:46;11.60;;;8.93;;
43628;SDS011;56545;48.224;11.678;2023-03-16T03:07:12;12.68;;;8.88;;
43628;SDS011;56545;48.224;11.678;2023-03-16T03:09:41;12.23;;;9.18;;
43628;SDS011;56545;48.224;11.678;2023-03-16T03:12:08;12.75;;;8.98;;
43628;SDS011;56545;48.224;11.678;2023-03-16T03:14:34;12.20;;;8.40;;
43628;SDS011;56545;48.224;11.678;2023-03-16T03:17:04;12.40;;;8.75;;
43628;SDS011;56545;48.224;11.678;2023-03-16T03:19:34;11.52;;;8.40;;
43628;SDS011;56545;48.224;11.678;2023-03-16T03:22:01;13.13;;;9.13;;
43628;SDS011;56545;48.224;11.678;2023-03-16T03:24:29;12.07;;;8.13;;
43628;SDS011;56545;48.224;11.678;2023-03-16T03:26:56;12.23;;;8.27;;
43628;SDS011;56545;48.224;11.678;2023-03-16T03:29:25;13.18;;;8.20;;
43628;SDS011;56545;48.224;11.678;2023-03-16T03:31:59;13.48;;;9.00;;
43628;SDS011;56545;48.224;11.678;2023-03-16T03:34:26;11.85;;;8.80;;
43628;SDS011;56545;48.224;11.678;2023-03-16T03:36:53;13.48;;;8.95;;
43628;SDS011;56545;48.224;11.678;2023-03-16T03:39:19;12.80;;;8.88;;
43628;SDS011;56545;48.224;11.678;2023-03-16T03:41:44;12.25;;;9.07;;
43628;SDS011;56545;48.224;11.678;2023-03-16T03:44:10;11.95;;;8.88;;
43628;SDS011;56545;48.224;11.678;2023-03-16T03:46:36;13.05;;;9.30;;
43628;SDS011;56545;48.224;11.678;2023-03-16T03:49:02;12.32;;;8.75;;
43628;SDS011;56545;48.224;11.678;2023-03-16T03:51:29;13.27;;;9.25;;
43628;SDS011;56545;48.224;11.678;2023-03-16T03:53:56;13.50;;;9.55;;
43628;SDS011;56545;48.224;11.678;2023-03-16T03:56:22;13.23;;;9.63;;
43628;SDS011;56545;48.224;11.678;2023-03-16T03:58:49;13.50;;;9.60;;
43628;SDS011;56545;48.224;11.678;2023-03-16T04:01:15;12.30;;;9.35;;
43628;SDS011;56545;48.224;11.678;2023-03-16T04:03:41;13.45;;;9.20;;
43628;SDS011;56545;48.224;11.678;2023-03-16T04:06:07;12.50;;;9.40;;
43628;SDS011;56545;48.224;11.678;2023-03-16T04:08:34;14.60;;;9.80;;
43628;SDS011;56545;48.224;11.678;2023-03-16T04:11:00;15.45;;;9.63;;
43628;SDS011;56545;48.224;11.678;2023-03-16T04:13:26;14.80;;;10.50;;
43628;SDS011;56545;48.224;11.678;2023-03-16T04:15:55;13.95;;;9.98;;
43628;SDS011;56545;48.224;11.678;2023-03-16T04:18:22;13.25;;;9.32;;
43628;SDS011;56545;48.224;11.678;2023-03-16T04:20:48;14.88;;;10.15;;
43628;SDS011;56545;48.224;11.678;2023-03-16T04:23:14;13.07;;;9.80;;
43628;SDS011;56545;48.224;11.678;2023-03-16T04:25:41;14.63;;;10.32;;
43628;SDS011;56545;48.224;11.678;2023-03-16T04:28:07;14.45;;;10.20;;
43628;SDS011;56545;48.224;11.678;2023-03-16T04:30:32;15.07;;;10.32;;
43628;SDS011;56545;48.224;11.678;2023-03-16T04:32:59;14.05;;;10.15;;
43628;SDS011;56545;48.224;11.678;2023-03-16T04:35:25;15.40;;;10.48;;
43628;SDS011;56545;48.224;11.678;2023-03-16T04:37:51;14.52;;;10.20;;
43628;SDS011;56545;48.224;11.678;2023-03-16T04:40:16;13.77;;;9.93;;
43628;SDS011;56545;48.224;11.678;2023-03-16T04:42:43;13.43;;;9.88;;
43628;SDS011;56545;48.224;11.678;2023-03-16T04:45:10;15.27;;;10.57;;
43628;SDS011;56545;48.224;11.678;2023-03-16T04:47:37;15.02;;;10.68;;
43628;SDS011;56545;48.224;11.678;2023-03-16T04:50:03;14.27;;;10.73;;
43628;SDS011;56545;48.224;11.678;2023-03-16T04:52:30;15.18;;;10.70;;
43628;SDS011;56545;48.224;11.678;2023-03-16T04:54:56;14.40;;;10.77;;
43628;SDS011;56545;48.224;11.678;2023-03-16T04:57:22;17.92;;;11.95;;
43628;SDS011;56545;48.224;11.678;2023-03-16T04:59:48;15.43;;;11.02;;
43628;SDS011;56545;48.224;11.678;2023-03-16T05:02:14;15.05;;;11.00;;
43628;SDS011;56545;48.224;11.678;2023-03-16T05:04:41;15.55;;;10.93;;
43628;SDS011;56545;48.224;11.678;2023-03-16T05:07:07;16.48;;;11.88;;
43628;SDS011;56545;48.224;11.678;2023-03-16T05:09:33;15.82;;;11.32;;
43628;SDS011;56545;48.224;11.678;2023-03-16T05:11:59;14.90;;;10.95;;
43628;SDS011;56545;48.224;11.678;2023-03-16T05:14:25;17.02;;;12.15;;
43628;SDS011;56545;48.224;11.678;2023-03-16T05:16:51;16.50;;;12.38;;
43628;SDS011;56545;48.224;11.678;2023-03-16T05:19:17;16.10;;;11.65;;
43628;SDS011;56545;48.224;11.678;2023-03-16T05:21:43;16.58;;;11.80;;
43628;SDS011;56545;48.224;11.678;2023-03-16T05:24:09;18.17;;;13.05;;
43628;SDS011;56545;48.224;11.678;2023-03-16T05:26:38;16.35;;;12.05;;
43628;SDS011;56545;48.224;11.678;2023-03-16T05:29:04;16.13;;;11.85;;
43628;SDS011;56545;48.224;11.678;2023-03-16T05:31:30;16.08;;;11.50;;
43628;SDS011;56545;48.224;11.678;2023-03-16T05:33:56;17.92;;;12.48;;
43628;SDS011;56545;48.224;11.678;2023-03-16T05:36:23;16.27;;;12.02;;
43628;SDS011;56545;48.224;11.678;2023-03-16T05:38:49;16.83;;;11.48;;
43628;SDS011;56545;48.224;11.678;2023-03-16T05:41:16;16.17;;;11.75;;
43628;SDS011;56545;48.224;11.678;2023-03-16T05:43:42;17.45;;;11.75;;
43628;SDS011;56545;48.224;11.678;2023-03-16T05:46:09;17.92;;;12.23;;
43628;SDS011;56545;48.224;11.678;2023-03-16T05:48:35;18.38;;;12.23;;
43628;SDS011;56545;48.224;11.678;2023-03-16T05:51:01;15.77;;;11.82;;
43628;SDS011;56545;48.224;11.678;2023-03-16T05:53:30;17.98;;;12.13;;
43628;SDS011;56545;48.224;11.678;2023-03-16T05:55:56;18.02;;;12.07;;
43628;SDS011;56545;48.224;11.678;2023-03-16T05:58:22;18.60;;;12.18;;
43628;SDS011;56545;48.224;11.678;2023-03-16T06:00:48;20.75;;;12.45;;
43628;SDS011;56545;48.224;11.678;2023-03-16T06:03:19;17.33;;;11.98;;
43628;SDS011;56545;48.224;11.678;2023-03-16T06:05:46;16.60;;;11.55;;
43628;SDS011;56545;48.224;11.678;2023-03-16T06:08:12;15.65;;;11.38;;
43628;SDS011;56545;48.224;11.678;2023-03-16T06:10:39;17.73;;;11.82;;
43628;SDS011;56545;48.224;11.678;2023-03-16T06:13:05;16.10;;;11.25;;
43628;SDS011;56545;48.224;11.678;2023-03-16T06:15:31;16.17;;;11.50;;
43628;SDS011;56545;48.224;11.678;2023-03-16T06:17:57;16.88;;;11.32;;
43628;SDS011;56545;48.224;11.678;2023-03-16T06:20:23;14.27;;;10.52;;
43628;SDS011;56545;48.224;11.678;2023-03-16T06:22:48;14.85;;;10.40;;
43628;SDS011;56545;48.224;11.678;2023-03-16T06:25:15;14.55;;;10.07;;
43628;SDS011;56545;48.224;11.678;2023-03-16T06:27:41;14.35;;;9.90;;
43628;SDS011;56545;48.224;11.678;2023-03-16T06:30:08;14.35;;;9.75;;
43628;SDS011;56545;48.224;11.678;2023-03-16T06:32:36;15.73;;;9.80;;
43628;SDS011;56545;48.224;11.678;2023-03-16T06:35:02;13.43;;;9.50;;
43628;SDS011;56545;48.224;11.678;2023-03-16T06:37:29;13.82;;;9.60;;
43628;SDS011;56545;48.224;11.678;2023-03-16T06:39:55;14.85;;;9.65;;
43628;SDS011;56545;48.224;11.678;2023-03-16T06:42:21;14.45;;;10.25;;
43628;SDS011;56545;48.224;11.678;2023-03-16T06:44:47;16.25;;;9.98;;
43628;SDS011;56545;48.224;11.678;2023-03-16T06:47:13;14.60;;;9.65;;
43628;SDS011;56545;48.224;11.678;2023-03-16T06:49:39;14.57;;;10.05;;
43628;SDS011;56545;48.224;11.678;2023-03-16T06:52:05;13.95;;;9.60;;
43628;SDS011;56545;48.224;11.678;2023-03-16T06:54:31;12.10;;;8.95;;
43628;SDS011;56545;48.224;11.678;2023-03-16T06:56:59;12.65;;;8.50;;
43628;SDS011;56545;48.224;11.678;2023-03-16T06:59:25;11.32;;;8.32;;
43628;SDS011;56545;48.224;11.678;2023-03-16T07:01:51;13.57;;;8.98;;
43628;SDS011;56545;48.224;11.678;2023-03-16T07:04:17;11.63;;;8.35;;
43628;SDS011;56545;48.224;11.678;2023-03-16T07:06:43;10.60;;;7.60;;
43628;SDS011;56545;48.224;11.678;2023-03-16T07:09:09;11.98;;;7.72;;
43628;SDS011;56545;48.224;11.678;2023-03-16T07:11:36;10.98;;;7.40;;
43628;SDS011;56545;48.224;11.678;2023-03-16T07:14:02;10.52;;;7.75;;
43628;SDS011;56545;48.224;11.678;2023-03-16T07:16:29;11.70;;;6.93;;
43628;SDS011;56545;48.224;11.678;2023-03-16T07:18:55;10.48;;;7.57;;
43628;SDS011;56545;48.224;11.678;2023-03-16T07:21:21;10.20;;;6.30;;
43628;SDS011;56545;48.224;11.678;2023-03-16T07:23:48;11.20;;;6.90;;
43628;SDS011;56545;48.224;11.678;2023-03-16T07:26:14;10.35;;;6.60;;
43628;SDS011;56545;48.224;11.678;2023-03-16T07:28:40;8.82;;;6.35;;
43628;SDS011;56545;48.224;11.678;2023-03-16T07:31:06;10.50;;;6.80;;
43628;SDS011;56545;48.224;11.678;2023-03-16T07:33:33;9.55;;;6.47;;
43628;SDS011;56545;48.224;11.678;2023-03-16T07:36:00;9.60;;;6.28;;
43628;SDS011;56545;48.224;11.678;2023-03-16T07:38:30;10.25;;;7.05;;
43628;SDS011;56545;48.224;11.678;2023-03-16T07:40:57;10.60;;;7.03;;
43628;SDS011;56545;48.224;11.678;2023-03-16T07:43:23;10.68;;;7.55;;
43628;SDS011;56545;48.224;11.678;2023-03-16T07:45:50;9.88;;;6.85;;
43628;SDS011;56545;48.224;11.678;2023-03-16T07:48:17;11.57;;;7.72;;
43628;SDS011;56545;48.224;11.678;2023-03-16T07:50:43;17.13;;;11.98;;
43628;SDS011;56545;48.224;11.678;2023-03-16T07:53:12;10.95;;;7.88;;
43628;SDS011;56545;48.224;11.678;2023-03-16T07:55:39;10.60;;;7.63;;
43628;SDS011;56545;48.224;11.678;2023-03-16T07:58:06;11.80;;;8.50;;
43628;SDS011;56545;48.224;11.678;2023-03-16T08:00:33;12.75;;;8.98;;
43628;SDS011;56545;48.224;11.678;2023-03-16T08:02:59;13.73;;;9.60;;
43628;SDS011;56545;48.224;11.678;2023-03-16T08:05:26;14.55;;;10.55;;
43628;SDS011;56545;48.224;11.678;2023-03-16T08:07:52;15.27;;;10.80;;
43628;SDS011;56545;48.224;11.678;2023-03-16T08:10:19;14.25;;;10.27;;
43628;SDS011;56545;48.224;11.678;2023-03-16T08:12:46;15.10;;;10.18;;
43628;SDS011;56545;48.224;11.678;2023-03-16T08:15:12;14.52;;;10.27;;
43628;SDS011;56545;48.224;11.678;2023-03-16T08:17:37;16.42;;;10.40;;
43628;SDS011;56545;48.224;11.678;2023-03-16T08:20:05;17.65;;;12.55;;
43628;SDS011;56545;48.224;11.678;2023-03-16T08:22:34;17.70;;;12.60;;
43628;SDS011;56545;48.224;11.678;2023-03-16T08:25:01;18.80;;;12.07;;
43628;SDS011;56545;48.224;11.678;2023-03-16T08:27:28;17.17;;;12.40;;
43628;SDS011;56545;48.224;11.678;2023-03-16T08:29:54;16.63;;;11.98;;
43628;SDS011;56545;48.224;11.678;2023-03-16T08:32:20;15.52;;;11.32;;
43628;SDS011;56545;48.224;11.678;2023-03-16T08:34:46;17.30;;;12.23;;
43628;SDS011;56545;48.224;11.678;2023-03-16T08:37:14;19.35;;;12.50;;
43628;SDS011;56545;48.224;11.678;2023-03-16T08:39:40;16.83;;;11.77;;
43628;SDS011;56545;48.224;11.678;2023-03-16T08:42:08;16.25;;;11.80;;
43628;SDS011;56545;48.224;11.678;2023-03-16T08:44:34;16.90;;;12.05;;
43628;SDS011;56545;48.224;11.678;2023-03-16T08:47:01;17.92;;;12.18;;
43628;SDS011;56545;48.224;11.678;2023-03-16T08:49:29;16.13;;;11.50;;
43628;SDS011;56545;48.224;11.678;2023-03-16T08:51:55;16.23;;;11.80;;
43628;SDS011;56545;48.224;11.678;2023-03-16T08:54:21;15.70;;;11.60;;
43628;SDS011;56545;48.224;11.678;2023-03-16T08:56:47;16.30;;;11.43;;
43628;SDS011;56545;48.224;11.678;2023-03-16T08:59:13;17.30;;;11.93;;
43628;SDS011;56545;48.224;11.678;2023-03-16T09:01:39;15.20;;;10.35;;
43628;SDS011;56545;48.224;11.678;2023-03-16T09:04:05;14.30;;;10.27;;
43628;SDS011;56545;48.224;11.678;2023-03-16T09:06:31;15.63;;;10.43;;
43628;SDS011;56545;48.224;11.678;2023-03-16T09:08:57;14.27;;;10.40;;
43628;SDS011;56545;48.224;11.678;2023-03-16T09:11:22;14.48;;;9.95;;
43628;SDS011;56545;48.224;11.678;2023-03-16T09:13:52;14.13;;;9.70;;
43628;SDS011;56545;48.224;11.678;2023-03-16T09:16:18;15.73;;;9.57;;
43628;SDS011;56545;48.224;11.678;2023-03-16T09:18:49;13.07;;;9.63;;
43628;SDS011;56545;48.224;11.678;2023-03-16T09:21:16;13.90;;;9.18;;
43628;SDS011;56545;48.224;11.678;2023-03-16T09:23:42;11.07;;;9.02;;
43628;SDS011;56545;48.224;11.678;2023-03-16T09:26:08;13.23;;;9.35;;
43628;SDS011;56545;48.224;11.678;2023-03-16T09:28:36;11.35;;;8.75;;
43628;SDS011;56545;48.224;11.678;2023-03-16T09:31:03;11.82;;;9.13;;
43628;SDS011;56545;48.224;11.678;2023-03-16T09:33:29;11.10;;;8.60;;
43628;SDS011;56545;48.224;11.678;2023-03-16T09:35:56;11.57;;;8.35;;
43628;SDS011;56545;48.224;11.678;2023-03-16T09:38:22;11.85;;;8.40;;
43628;SDS011;56545;48.224;11.678;2023-03-16T09:40:54;11.00;;;8.18;;
43628;SDS011;56545;48.224;11.678;2023-03-16T09:43:53;11.43;;;8.05;;
43628;SDS011;56545;48.224;11.678;2023-03-16T09:48:54;10.43;;;7.45;;
43628;SDS011;56545;48.224;11.678;2023-03-16T09:51:35;10.40;;;7.07;;
43628;SDS011;56545;48.224;11.678;2023-03-16T09:57:16;8.57;;;6.55;;
43628;SDS011;56545;48.224;11.678;2023-03-16T09:59:50;8.85;;;6.70;;
43628;SDS011;56545;48.224;11.678;2023-03-16T10:02:35;10.88;;;8.10;;
43628;SDS011;56545;48.224;11.678;2023-03-16T10:05:21;8.32;;;6.40;;
43628;SDS011;56545;48.224;11.678;2023-03-16T10:08:01;7.85;;;6.15;;
43628;SDS011;56545;48.224;11.678;2023-03-16T10:10:43;7.80;;;6.13;;
43628;SDS011;56545;48.224;11.678;2023-03-16T10:13:27;8.23;;;5.72;;
43628;SDS011;56545;48.224;11.678;2023-03-16T10:16:08;7.38;;;6.20;;
43628;SDS011;56545;48.224;11.678;2023-03-16T10:18:45;8.10;;;5.35;;
43628;SDS011;56545;48.224;11.678;2023-03-16T10:21:15;6.70;;;5.22;;
43628;SDS011;56545;48.224;11.678;2023-03-16T10:23:44;6.60;;;5.30;;
43628;SDS011;56545;48.224;11.678;2023-03-16T10:26:12;6.25;;;5.30;;
43628;SDS011;56545;48.224;11.678;2023-03-16T10:28:42;6.72;;;5.53;;
43628;SDS011;56545;48.224;11.678;2023-03-16T10:31:09;5.97;;;4.97;;
43628;SDS011;56545;48.224;11.678;2023-03-16T10:33:37;6.68;;;5.38;;
43628;SDS011;56545;48.224;11.678;2023-03-16T10:36:14;6.45;;;5.05;;
43628;SDS011;56545;48.224;11.678;2023-03-16T10:38:51;6.75;;;4.40;;
43628;SDS011;56545;48.224;11.678;2023-03-16T10:41:23;6.00;;;4.90;;
43628;SDS011;56545;48.224;11.678;2023-03-16T10:43:55;6.10;;;4.70;;
43628;SDS011;56545;48.224;11.678;2023-03-16T10:46:35;6.10;;;4.55;;
43628;SDS011;56545;48.224;11.678;2023-03-16T10:51:46;6.15;;;4.78;;
43628;SDS011;56545;48.224;11.678;2023-03-16T10:54:18;7.03;;;5.35;;
43628;SDS011;56545;48.224;11.678;2023-03-16T10:56:56;5.75;;;4.63;;
43628;SDS011;56545;48.224;11.678;2023-03-16T10:59:27;6.72;;;4.85;;
43628;SDS011;56545;48.224;11.678;2023-03-16T11:01:59;6.07;;;5.00;;
43628;SDS011;56545;48.224;11.678;2023-03-16T11:04:33;6.50;;;5.28;;
43628;SDS011;56545;48.224;11.678;2023-03-16T11:06:59;6.85;;;5.35;;
43628;SDS011;56545;48.224;11.678;2023-03-16T11:09:30;7.20;;;5.50;;
43628;SDS011;56545;48.224;11.678;2023-03-16T11:11:57;9.05;;;6.00;;
43628;SDS011;56545;48.224;11.678;2023-03-16T11:14:26;7.22;;;5.80;;
43628;SDS011;56545;48.224;11.678;2023-03-16T11:17:02;7.60;;;6.15;;
43628;SDS011;56545;48.224;11.678;2023-03-16T11:22:41;7.07;;;5.88;;
43628;SDS011;56545;48.224;11.678;2023-03-16T11:30:38;7.20;;;5.78;;
43628;SDS011;56545;48.224;11.678;2023-03-16T11:33:12;7.32;;;5.80;;
43628;SDS011;56545;48.224;11.678;2023-03-16T11:39:04;7.72;;;5.88;;
43628;SDS011;56545;48.224;11.678;2023-03-16T11:44:42;7.95;;;5.43;;
43628;SDS011;56545;48.224;11.678;2023-03-16T11:50:32;7.07;;;5.47;;
43628;SDS011;56545;48.224;11.678;2023-03-16T11:52:49;7.35;;;5.35;;
43628;SDS011;56545;48.224;11.678;2023-03-16T11:58:00;8.10;;;5.32;;
43628;SDS011;56545;48.224;11.678;2023-03-16T12:03:43;6.60;;;5.07;;
43628;SDS011;56545;48.224;11.678;2023-03-16T12:06:17;7.70;;;5.53;;
43628;SDS011;56545;48.224;11.678;2023-03-16T12:09:10;8.88;;;5.30;;
43628;SDS011;56545;48.224;11.678;2023-03-16T12:14:26;10.73;;;5.90;;
43628;SDS011;56545;48.224;11.678;2023-03-16T12:17:17;7.20;;;5.32;;
43628;SDS011;56545;48.224;11.678;2023-03-16T12:22:48;7.97;;;5.15;;
43628;SDS011;56545;48.224;11.678;2023-03-16T12:25:19;6.32;;;4.50;;
43628;SDS011;56545;48.224;11.678;2023-03-16T12:27:47;6.72;;;4.65;;
43628;SDS011;56545;48.224;11.678;2023-03-16T12:30:22;7.10;;;4.53;;
43628;SDS011;56545;48.224;11.678;2023-03-16T12:33:20;8.50;;;4.70;;
43628;SDS011;56545;48.224;11.678;2023-03-16T12:41:18;6.70;;;4.30;;
43628;SDS011;56545;48.224;11.678;2023-03-16T12:49:39;7.03;;;4.25;;
43628;SDS011;56545;48.224;11.678;2023-03-16T12:52:09;6.35;;;4.05;;
43628;SDS011;56545;48.224;11.678;2023-03-16T12:54:47;6.97;;;4.32;;
43628;SDS011;56545;48.224;11.678;2023-03-16T12:57:16;8.55;;;4.20;;
43628;SDS011;56545;48.224;11.678;2023-03-16T12:59:43;6.95;;;4.40;;
43628;SDS011;56545;48.224;11.678;2023-03-16T13:02:13;7.65;;;4.38;;
43628;SDS011;56545;48.224;11.678;2023-03-16T13:04:43;6.55;;;3.97;;
43628;SDS011;56545;48.224;11.678;2023-03-16T13:07:15;6.95;;;4.25;;
43628;SDS011;56545;48.224;11.678;2023-03-16T13:09:51;6.03;;;3.65;;
43628;SDS011;56545;48.224;11.678;2023-03-16T13:12:34;6.50;;;4.10;;
43628;SDS011;56545;48.224;11.678;2023-03-16T13:18:01;6.75;;;3.72;;
43628;SDS011;56545;48.224;11.678;2023-03-16T13:20:34;5.55;;;3.67;;
43628;SDS011;56545;48.224;11.678;2023-03-16T13:25:42;6.47;;;3.78;;
43628;SDS011;56545;48.224;11.678;2023-03-16T13:28:13;8.75;;;5.20;;
43628;SDS011;56545;48.224;11.678;2023-03-16T13:30:47;5.45;;;3.50;;
43628;SDS011;56545;48.224;11.678;2023-03-16T13:33:18;6.18;;;3.30;;
43628;SDS011;56545;48.224;11.678;2023-03-16T13:35:46;6.38;;;3.38;;
43628;SDS011;56545;48.224;11.678;2023-03-16T13:38:15;6.93;;;3.35;;
43628;SDS011;56545;48.224;11.678;2023-03-16T13:40:45;5.25;;;2.95;;
43628;SDS011;56545;48.224;11.678;2023-03-16T13:43:17;6.20;;;2.97;;
43628;SDS011;56545;48.224;11.678;2023-03-16T13:45:45;5.13;;;2.85;;
43628;SDS011;56545;48.224;11.678;2023-03-16T13:48:12;4.78;;;2.95;;
43628;SDS011;56545;48.224;11.678;2023-03-16T13:50:40;5.97;;;2.90;;
43628;SDS011;56545;48.224;11.678;2023-03-16T13:53:14;5.90;;;3.17;;
43628;SDS011;56545;48.224;11.678;2023-03-16T13:56:01;5.70;;;2.90;;
43628;SDS011;56545;48.224;11.678;2023-03-16T13:58:29;7.85;;;2.80;;
43628;SDS011;56545;48.224;11.678;2023-03-16T14:01:00;4.20;;;2.60;;
43628;SDS011;56545;48.224;11.678;2023-03-16T14:03:34;6.22;;;2.60;;
43628;SDS011;56545;48.224;11.678;2023-03-16T14:06:02;5.32;;;2.55;;
43628;SDS011;56545;48.224;11.678;2023-03-16T14:08:30;5.75;;;2.72;;
43628;SDS011;56545;48.224;11.678;2023-03-16T14:10:57;5.13;;;2.50;;
43628;SDS011;56545;48.224;11.678;2023-03-16T14:15:55;4.75;;;2.90;;
43628;SDS011;56545;48.224;11.678;2023-03-16T14:18:26;5.53;;;2.67;;
43628;SDS011;56545;48.224;11.678;2023-03-16T14:20:57;5.15;;;2.65;;
43628;SDS011;56545;48.224;11.678;2023-03-16T14:23:24;4.40;;;2.72;;
43628;SDS011;56545;48.224;11.678;2023-03-16T14:25:57;5.20;;;2.88;;
43628;SDS011;56545;48.224;11.678;2023-03-16T14:28:27;4.45;;;2.55;;
43628;SDS011;56545;48.224;11.678;2023-03-16T14:31:30;4.40;;;2.53;;
43628;SDS011;56545;48.224;11.678;2023-03-16T14:33:58;4.25;;;2.63;;
43628;SDS011;56545;48.224;11.678;2023-03-16T14:36:36;5.10;;;2.60;;
43628;SDS011;56545;48.224;11.678;2023-03-16T14:39:09;8.38;;;2.78;;
43628;SDS011;56545;48.224;11.678;2023-03-16T14:41:37;5.97;;;2.72;;
43628;SDS011;56545;48.224;11.678;2023-03-16T14:44:03;4.70;;;2.55;;
43628;SDS011;56545;48.224;11.678;2023-03-16T14:46:39;4.90;;;2.45;;
43628;SDS011;56545;48.224;11.678;2023-03-16T14:49:07;4.78;;;2.50;;
43628;SDS011;56545;48.224;11.678;2023-03-16T14:51:44;4.15;;;2.63;;
43628;SDS011;56545;48.224;11.678;2023-03-16T14:54:13;4.40;;;2.30;;
43628;SDS011;56545;48.224;11.678;2023-03-16T14:56:41;5.38;;;2.78;;
43628;SDS011;56545;48.224;11.678;2023-03-16T14:59:08;4.72;;;2.60;;
43628;SDS011;56545;48.224;11.678;2023-03-16T15:01:34;4.18;;;2.45;;
43628;SDS011;56545;48.224;11.678;2023-03-16T15:04:02;6.15;;;2.95;;
43628;SDS011;56545;48.224;11.678;2023-03-16T15:06:28;6.15;;;2.63;;
43628;SDS011;56545;48.224;11.678;2023-03-16T15:08:56;5.00;;;2.45;;
43628;SDS011;56545;48.224;11.678;2023-03-16T15:11:22;4.78;;;2.80;;
43628;SDS011;56545;48.224;11.678;2023-03-16T15:13:50;5.18;;;2.78;;
43628;SDS011;56545;48.224;11.678;2023-03-16T15:16:16;5.70;;;2.65;;
43628;SDS011;56545;48.224;11.678;2023-03-16T15:18:43;6.63;;;3.08;;
43628;SDS011;56545;48.224;11.678;2023-03-16T15:21:13;5.22;;;2.80;;
43628;SDS011;56545;48.224;11.678;2023-03-16T15:23:47;5.13;;;2.90;;
43628;SDS011;56545;48.224;11.678;2023-03-16T15:26:14;5.15;;;2.67;;
43628;SDS011;56545;48.224;11.678;2023-03-16T15:28:45;5.55;;;2.97;;
43628;SDS011;56545;48.224;11.678;2023-03-16T15:31:12;5.78;;;2.90;;
43628;SDS011;56545;48.224;11.678;2023-03-16T15:33:38;6.15;;;3.00;;
43628;SDS011;56545;48.224;11.678;2023-03-16T15:36:09;5.32;;;2.72;;
43628;SDS011;56545;48.224;11.678;2023-03-16T15:38:42;5.30;;;2.60;;